createdAt,value
2018-10-05T00:00:12.375Z,8.13
2018-10-05T00:01:22.114Z,10.10
2018-10-05T00:02:31.706Z,9.73
2018-10-05T00:03:41.271Z,7.65
2018-10-05T00:04:51.044Z,9.33
2018-10-05T00:06:00.509Z,11.05
2018-10-05T00:07:10.181Z,8.20
2018-10-05T00:08:19.746Z,10.20
2018-10-05T00:09:29.388Z,7.75
2018-10-05T00:10:39.568Z,7.85
2018-10-05T00:11:49.233Z,6.78
2018-10-05T00:12:58.901Z,7.35
2018-10-05T00:14:08.536Z,8.30
2018-10-05T00:15:18.239Z,7.60
2018-10-05T00:16:28.001Z,7.20
2018-10-05T00:17:37.605Z,8.23
2018-10-05T00:18:47.074Z,9.23
2018-10-05T00:19:56.728Z,8.05
2018-10-05T00:21:06.447Z,8.95
2018-10-05T00:22:16.279Z,7.70
2018-10-05T00:23:26.113Z,8.65
2018-10-05T00:24:35.687Z,7.37
2018-10-05T00:25:45.342Z,8.03
2018-10-05T00:26:54.879Z,11.75
2018-10-05T00:28:04.709Z,6.72
2018-10-05T00:29:14.203Z,7.92
2018-10-05T00:30:23.781Z,8.88
2018-10-05T00:31:38.779Z,8.85
2018-10-05T00:32:48.340Z,8.00
2018-10-05T00:33:57.957Z,8.98
2018-10-05T00:35:07.490Z,7.97
2018-10-05T00:36:17.106Z,12.30
2018-10-05T00:37:30.433Z,8.33
2018-10-05T00:38:40.044Z,7.42
2018-10-05T00:39:49.562Z,10.55
2018-10-05T00:41:00.319Z,9.08
2018-10-05T00:42:10.061Z,9.28
2018-10-05T00:43:20.229Z,8.93
2018-10-05T00:44:29.872Z,7.72
2018-10-05T00:45:39.542Z,7.35
2018-10-05T00:46:49.064Z,6.58
2018-10-05T00:47:58.816Z,8.53
2018-10-05T00:49:08.343Z,10.85
2018-10-05T00:50:18.187Z,7.65
2018-10-05T00:51:28.049Z,7.33
2018-10-05T00:52:37.753Z,7.87
2018-10-05T00:53:47.513Z,9.93
2018-10-05T00:54:57.237Z,9.53
2018-10-05T00:56:06.910Z,10.45
2018-10-05T00:57:16.548Z,7.03
2018-10-05T00:58:26.113Z,7.50
2018-10-05T00:59:35.765Z,7.37
2018-10-05T01:00:45.445Z,6.28
2018-10-05T01:01:55.854Z,8.38
2018-10-05T01:03:05.363Z,7.10
2018-10-05T01:04:15.163Z,8.80
2018-10-05T01:05:24.766Z,8.48
2018-10-05T01:06:34.456Z,7.97
2018-10-05T01:07:44.151Z,7.87
2018-10-05T01:08:53.869Z,7.22
2018-10-05T01:10:03.645Z,8.70
2018-10-05T01:11:13.637Z,7.85
2018-10-05T01:12:23.306Z,9.30
2018-10-05T01:13:33.027Z,9.78
2018-10-05T01:14:42.666Z,8.33
2018-10-05T01:15:52.191Z,8.08
2018-10-05T01:17:01.617Z,9.38
2018-10-05T01:18:14.579Z,10.40
2018-10-05T01:19:24.206Z,7.33
2018-10-05T01:20:33.813Z,7.97
2018-10-05T01:21:43.326Z,7.92
2018-10-05T01:22:53.201Z,9.88
2018-10-05T01:24:02.895Z,9.65
2018-10-05T01:25:12.520Z,7.75
2018-10-05T01:26:22.126Z,9.43
2018-10-05T01:27:31.684Z,8.78
2018-10-05T01:28:41.147Z,8.28
2018-10-05T01:29:51.005Z,7.95
2018-10-05T01:31:00.569Z,8.73
2018-10-05T01:32:10.254Z,9.58
2018-10-05T01:33:20.028Z,11.45
2018-10-05T01:34:29.646Z,9.73
2018-10-05T01:35:39.239Z,8.93
2018-10-05T01:36:48.833Z,13.62
2018-10-05T01:37:58.473Z,9.33
2018-10-05T01:39:08.140Z,8.75
2018-10-05T01:40:17.891Z,10.72
2018-10-05T01:41:30.960Z,10.10
2018-10-05T01:42:40.534Z,11.08
2018-10-05T01:43:50.394Z,10.65
2018-10-05T01:45:00.305Z,11.75
2018-10-05T01:46:10.003Z,13.48
2018-10-05T01:47:23.360Z,11.12
2018-10-05T01:48:33.133Z,12.70
2018-10-05T01:49:42.757Z,10.13
2018-10-05T01:50:52.550Z,12.50
2018-10-05T01:52:05.909Z,9.65
2018-10-05T01:53:15.722Z,10.65
2018-10-05T01:54:25.798Z,15.18
2018-10-05T01:55:35.408Z,11.12
2018-10-05T01:56:59.199Z,13.08
2018-10-05T01:58:08.961Z,9.58
2018-10-05T01:59:18.720Z,11.68
2018-10-05T02:00:28.441Z,10.38
2018-10-05T02:01:38.312Z,10.25
2018-10-05T02:02:53.236Z,9.50
2018-10-05T02:04:03.281Z,16.85
2018-10-05T02:05:12.866Z,14.38
2018-10-05T02:06:22.793Z,14.33
2018-10-05T02:07:35.806Z,9.38
2018-10-05T02:08:45.632Z,12.75
2018-10-05T02:09:55.286Z,11.55
2018-10-05T02:11:05.119Z,10.50
2018-10-05T02:12:14.718Z,10.48
2018-10-05T02:13:27.856Z,12.82
2018-10-05T02:14:37.659Z,12.33
2018-10-05T02:15:47.347Z,16.25
2018-10-05T02:16:57.066Z,11.75
2018-10-05T02:18:10.707Z,10.45
2018-10-05T02:19:20.321Z,10.90
2018-10-05T02:20:30.132Z,8.98
2018-10-05T02:21:39.793Z,12.63
2018-10-05T02:22:53.247Z,10.45
2018-10-05T02:24:03.254Z,10.08
2018-10-05T02:25:13.050Z,9.85
2018-10-05T02:26:22.520Z,7.60
2018-10-05T02:27:32.505Z,11.08
2018-10-05T02:28:45.527Z,10.90
2018-10-05T02:29:55.081Z,7.53
2018-10-05T02:31:04.677Z,8.75
2018-10-05T02:32:14.317Z,10.13
2018-10-05T02:33:23.943Z,9.35
2018-10-05T02:34:33.746Z,8.73
2018-10-05T02:35:43.396Z,12.03
2018-10-05T02:36:52.966Z,9.73
2018-10-05T02:38:02.669Z,9.10
2018-10-05T02:39:13.318Z,7.50
2018-10-05T02:40:22.931Z,10.03
2018-10-05T02:41:32.665Z,10.98
2018-10-05T02:42:42.245Z,7.87
2018-10-05T02:43:51.905Z,8.33
2018-10-05T02:45:01.408Z,9.85
2018-10-05T02:46:16.405Z,10.05
2018-10-05T02:47:26.163Z,9.20
2018-10-05T02:48:35.896Z,10.32
2018-10-05T02:49:45.704Z,8.13
2018-10-05T02:50:55.555Z,9.70
2018-10-05T02:52:05.519Z,7.17
2018-10-05T02:53:15.338Z,7.62
2018-10-05T02:54:25.216Z,10.43
2018-10-05T02:55:34.832Z,10.10
2018-10-05T02:56:44.431Z,12.07
2018-10-05T02:57:54.099Z,8.88
2018-10-05T02:59:03.850Z,10.13
2018-10-05T03:00:24.605Z,9.55
2018-10-05T03:01:45.368Z,10.90
2018-10-05T03:02:54.912Z,8.73
2018-10-05T03:04:04.290Z,8.40
2018-10-05T03:05:14.274Z,8.88
2018-10-05T03:06:24.038Z,9.23
2018-10-05T03:07:33.389Z,8.23
2018-10-05T03:08:43.091Z,10.25
2018-10-05T03:09:52.741Z,8.35
2018-10-05T03:11:02.435Z,8.50
2018-10-05T03:12:12.179Z,7.80
2018-10-05T03:13:21.817Z,9.10
2018-10-05T03:14:31.479Z,11.50
2018-10-05T03:15:41.185Z,6.72
2018-10-05T03:16:50.739Z,9.60
2018-10-05T03:18:00.323Z,9.60
2018-10-05T03:19:16.363Z,8.70
2018-10-05T03:20:25.888Z,8.00
2018-10-05T03:21:35.401Z,7.72
2018-10-05T03:22:45.066Z,7.50
2018-10-05T03:23:54.657Z,10.95
2018-10-05T03:25:04.217Z,7.42
2018-10-05T03:26:13.973Z,8.43
2018-10-05T03:27:23.634Z,7.15
2018-10-05T03:28:33.228Z,9.30
2018-10-05T03:29:43.115Z,8.35
2018-10-05T03:30:52.815Z,9.78
2018-10-05T03:32:02.629Z,8.28
2018-10-05T03:33:12.333Z,8.20
2018-10-05T03:34:22.142Z,9.58
2018-10-05T03:35:31.891Z,12.68
2018-10-05T03:36:41.563Z,9.25
2018-10-05T03:37:51.143Z,10.53
2018-10-05T03:39:01.042Z,12.10
2018-10-05T03:40:10.789Z,8.48
2018-10-05T03:41:20.243Z,10.98
2018-10-05T03:42:30.021Z,12.28
2018-10-05T03:43:39.633Z,10.80
2018-10-05T03:44:49.375Z,8.05
2018-10-05T03:46:02.669Z,12.58
2018-10-05T03:47:12.307Z,10.98
2018-10-05T03:48:22.036Z,8.13
2018-10-05T03:49:31.578Z,8.75
2018-10-05T03:50:41.403Z,8.65
2018-10-05T03:51:56.338Z,9.05
2018-10-05T03:53:06.426Z,9.58
2018-10-05T03:54:16.101Z,10.65
2018-10-05T03:55:25.769Z,8.90
2018-10-05T03:56:35.637Z,9.10
2018-10-05T03:57:45.373Z,8.35
2018-10-05T03:58:55.222Z,10.35
2018-10-05T04:00:05.401Z,10.30
2018-10-05T04:01:29.036Z,11.25
2018-10-05T04:02:38.639Z,10.20
2018-10-05T04:03:48.088Z,9.40
2018-10-05T04:04:57.837Z,12.10
2018-10-05T04:06:07.435Z,12.55
2018-10-05T04:07:16.909Z,9.95
2018-10-05T04:08:26.745Z,10.08
2018-10-05T04:09:36.416Z,9.23
2018-10-05T04:10:46.212Z,10.05
2018-10-05T04:12:01.186Z,10.32
2018-10-05T04:13:10.702Z,10.48
2018-10-05T04:14:20.293Z,9.58
2018-10-05T04:15:29.788Z,12.05
2018-10-05T04:16:51.789Z,8.85
2018-10-05T04:18:01.430Z,9.40
2018-10-05T04:19:11.146Z,9.30
2018-10-05T04:20:20.917Z,10.30
2018-10-05T04:21:30.614Z,10.98
2018-10-05T04:22:40.315Z,8.95
2018-10-05T04:23:49.769Z,10.88
2018-10-05T04:24:59.490Z,8.70
2018-10-05T04:26:09.420Z,8.65
2018-10-05T04:27:19.270Z,9.45
2018-10-05T04:28:28.652Z,11.50
2018-10-05T04:29:38.334Z,9.85
2018-10-05T04:30:47.995Z,11.70
2018-10-05T04:31:58.073Z,10.55
2018-10-05T04:33:07.654Z,9.00
2018-10-05T04:34:17.310Z,9.08
2018-10-05T04:35:26.958Z,11.15
2018-10-05T04:36:36.563Z,9.05
2018-10-05T04:37:46.625Z,12.05
2018-10-05T04:38:56.321Z,9.00
2018-10-05T04:40:06.206Z,10.15
2018-10-05T04:41:15.785Z,9.03
2018-10-05T04:42:25.669Z,12.35
2018-10-05T04:43:35.308Z,10.45
2018-10-05T04:44:44.934Z,9.90
2018-10-05T04:45:54.709Z,10.38
2018-10-05T04:47:04.553Z,11.93
2018-10-05T04:48:14.267Z,11.63
2018-10-05T04:49:24.143Z,10.32
2018-10-05T04:50:33.724Z,9.23
2018-10-05T04:51:43.403Z,9.65
2018-10-05T04:52:53.183Z,11.38
2018-10-05T04:54:02.791Z,11.55
2018-10-05T04:55:12.690Z,9.15
2018-10-05T04:56:22.424Z,9.88
2018-10-05T04:57:32.223Z,10.20
2018-10-05T04:58:41.855Z,9.00
2018-10-05T04:59:51.717Z,9.63
2018-10-05T05:01:01.678Z,10.95
2018-10-05T05:02:11.263Z,9.30
2018-10-05T05:03:21.175Z,13.45
2018-10-05T05:04:31.017Z,8.65
2018-10-05T05:05:40.800Z,10.43
2018-10-05T05:06:50.429Z,9.00
2018-10-05T05:08:00.352Z,8.08
2018-10-05T05:09:10.314Z,10.60
2018-10-05T05:10:19.869Z,9.35
2018-10-05T05:11:30.542Z,11.30
2018-10-05T05:12:40.409Z,8.63
2018-10-05T05:13:50.161Z,10.30
2018-10-05T05:14:59.879Z,9.43
2018-10-05T05:16:09.582Z,8.40
2018-10-05T05:17:19.246Z,8.75
2018-10-05T05:18:29.211Z,6.97
2018-10-05T05:19:38.828Z,10.88
2018-10-05T05:20:48.387Z,9.20
2018-10-05T05:21:58.158Z,9.90
2018-10-05T05:23:07.925Z,12.33
2018-10-05T05:24:17.482Z,8.23
2018-10-05T05:25:27.242Z,8.08
2018-10-05T05:26:37.057Z,8.55
2018-10-05T05:27:47.045Z,8.60
2018-10-05T05:28:56.820Z,7.35
2018-10-05T05:30:06.617Z,8.13
2018-10-05T05:31:16.125Z,8.98
2018-10-05T05:32:25.909Z,6.90
2018-10-05T05:33:43.477Z,8.30
2018-10-05T05:34:53.103Z,8.10
2018-10-05T05:36:02.735Z,8.18
2018-10-05T05:37:12.259Z,9.93
2018-10-05T05:38:22.087Z,11.88
2018-10-05T05:39:35.410Z,8.13
2018-10-05T05:40:45.288Z,7.58
2018-10-05T05:41:54.857Z,8.00
2018-10-05T05:43:04.523Z,8.73
2018-10-05T05:44:14.234Z,9.25
2018-10-05T05:45:23.850Z,8.65
2018-10-05T05:46:33.647Z,8.45
2018-10-05T05:47:43.363Z,8.00
2018-10-05T05:48:52.924Z,8.85
2018-10-05T05:50:02.594Z,11.48
2018-10-05T05:51:12.386Z,10.28
2018-10-05T05:52:21.978Z,9.18
2018-10-05T05:53:31.456Z,8.50
2018-10-05T05:54:41.001Z,7.92
2018-10-05T05:55:50.670Z,6.72
2018-10-05T05:57:00.238Z,8.00
2018-10-05T05:58:09.779Z,8.38
2018-10-05T05:59:19.365Z,8.28
2018-10-05T06:00:29.094Z,6.70
2018-10-05T06:01:38.710Z,7.95
2018-10-05T06:02:48.571Z,6.67
2018-10-05T06:03:58.267Z,6.83
2018-10-05T06:05:07.855Z,10.18
2018-10-05T06:06:17.516Z,8.13
2018-10-05T06:07:27.622Z,8.03
2018-10-05T06:08:37.429Z,8.08
2018-10-05T06:09:47.159Z,7.35
2018-10-05T06:10:57.034Z,6.53
2018-10-05T06:12:06.888Z,6.10
2018-10-05T06:13:16.690Z,8.15
2018-10-05T06:14:26.312Z,8.25
2018-10-05T06:15:36.049Z,6.75
2018-10-05T06:16:45.706Z,7.60
2018-10-05T06:17:55.318Z,6.12
2018-10-05T06:19:04.891Z,9.83
2018-10-05T06:20:14.447Z,8.40
2018-10-05T06:21:24.342Z,7.03
2018-10-05T06:22:33.995Z,9.30
2018-10-05T06:23:43.538Z,6.40
2018-10-05T06:24:53.261Z,7.97
2018-10-05T06:26:02.931Z,7.15
2018-10-05T06:27:12.622Z,6.50
2018-10-05T06:28:22.285Z,9.20
2018-10-05T06:29:32.036Z,10.10
2018-10-05T06:30:41.837Z,6.62
2018-10-05T06:31:54.962Z,6.20
2018-10-05T06:33:04.596Z,5.17
2018-10-05T06:34:14.336Z,9.90
2018-10-05T06:35:23.799Z,6.03
2018-10-05T06:36:33.502Z,9.83
2018-10-05T06:37:43.217Z,8.28
2018-10-05T06:38:52.859Z,6.37
2018-10-05T06:40:02.363Z,8.05
2018-10-05T06:41:12.155Z,6.60
2018-10-05T06:42:21.702Z,7.05
2018-10-05T06:43:31.595Z,9.98
2018-10-05T06:44:41.178Z,7.25
2018-10-05T06:45:51.010Z,6.75
2018-10-05T06:47:00.817Z,6.03
2018-10-05T06:48:10.437Z,7.10
2018-10-05T06:49:20.373Z,5.80
2018-10-05T06:50:30.330Z,5.83
2018-10-05T06:51:40.057Z,8.20
2018-10-05T06:52:49.825Z,6.30
2018-10-05T06:53:59.505Z,5.95
2018-10-05T06:55:09.278Z,6.58
2018-10-05T06:56:18.988Z,8.18
2018-10-05T06:57:28.677Z,4.67
2018-10-05T06:58:38.581Z,6.65
2018-10-05T06:59:48.478Z,5.87
2018-10-05T07:00:58.257Z,7.60
2018-10-05T07:02:07.963Z,6.20
2018-10-05T07:03:17.886Z,4.47
2018-10-05T07:04:27.894Z,5.87
2018-10-05T07:05:37.372Z,6.17
2018-10-05T07:06:47.042Z,8.88
2018-10-05T07:07:56.603Z,5.25
2018-10-05T07:09:07.083Z,6.60
2018-10-05T07:10:16.808Z,6.40
2018-10-05T07:11:26.702Z,7.22
2018-10-05T07:12:36.194Z,6.45
2018-10-05T07:13:45.915Z,5.53
2018-10-05T07:14:55.529Z,5.80
2018-10-05T07:16:05.118Z,6.17
2018-10-05T07:17:15.085Z,7.10
2018-10-05T07:18:24.626Z,7.95
2018-10-05T07:19:34.309Z,5.22
2018-10-05T07:20:44.066Z,6.65
2018-10-05T07:21:53.536Z,6.55
2018-10-05T07:23:03.034Z,5.78
2018-10-05T07:24:12.838Z,6.58
2018-10-05T07:25:22.413Z,8.88
2018-10-05T07:26:32.048Z,7.60
2018-10-05T07:27:41.862Z,5.95
2018-10-05T07:28:51.512Z,5.65
2018-10-05T07:30:01.127Z,6.03
2018-10-05T07:31:10.783Z,7.55
2018-10-05T07:32:23.669Z,6.80
2018-10-05T07:33:33.475Z,7.85
2018-10-05T07:34:42.999Z,6.35
2018-10-05T07:35:52.701Z,6.50
2018-10-05T07:37:07.880Z,5.58
2018-10-05T07:38:17.593Z,6.65
2018-10-05T07:39:27.296Z,7.03
2018-10-05T07:40:37.032Z,7.10
2018-10-05T07:41:46.608Z,6.20
2018-10-05T07:42:56.300Z,12.23
2018-10-05T07:44:06.005Z,8.30
2018-10-05T07:45:15.736Z,6.22
2018-10-05T07:46:25.368Z,6.15
2018-10-05T07:47:35.058Z,7.00
2018-10-05T07:48:44.799Z,8.08
2018-10-05T07:49:54.258Z,7.00
2018-10-05T07:51:03.728Z,6.65
2018-10-05T07:52:13.518Z,7.58
2018-10-05T07:53:23.086Z,7.87
2018-10-05T07:54:32.614Z,7.87
2018-10-05T07:55:42.155Z,7.67
2018-10-05T07:56:51.816Z,7.08
2018-10-05T07:58:01.490Z,7.70
2018-10-05T07:59:11.100Z,8.60
2018-10-05T08:00:21.005Z,5.83
2018-10-05T08:01:30.724Z,9.48
2018-10-05T08:02:40.608Z,6.22
2018-10-05T08:03:50.392Z,7.92
2018-10-05T08:05:00.019Z,7.37
2018-10-05T08:06:09.877Z,7.53
2018-10-05T08:07:19.620Z,5.67
2018-10-05T08:08:29.435Z,7.25
2018-10-05T08:09:39.092Z,7.05
2018-10-05T08:10:48.795Z,6.67
2018-10-05T08:11:59.191Z,5.35
2018-10-05T08:13:08.903Z,5.33
2018-10-05T08:14:18.658Z,8.85
2018-10-05T08:15:28.442Z,6.25
2018-10-05T08:16:38.013Z,6.12
2018-10-05T08:17:47.898Z,9.20
2018-10-05T08:18:57.580Z,6.67
2018-10-05T08:20:07.203Z,5.75
2018-10-05T08:21:16.883Z,6.40
2018-10-05T08:22:26.379Z,5.70
2018-10-05T08:23:36.042Z,5.20
2018-10-05T08:24:45.640Z,4.85
2018-10-05T08:25:55.346Z,5.80
2018-10-05T08:27:05.215Z,5.15
2018-10-05T08:28:14.789Z,9.30
2018-10-05T08:29:24.403Z,5.75
2018-10-05T08:30:33.913Z,6.12
2018-10-05T08:31:43.502Z,5.22
2018-10-05T08:32:53.403Z,5.80
2018-10-05T08:34:03.036Z,5.70
2018-10-05T08:35:12.785Z,5.60
2018-10-05T08:36:22.459Z,5.92
2018-10-05T08:37:35.309Z,7.85
2018-10-05T08:38:44.967Z,4.45
2018-10-05T08:39:54.556Z,6.45
2018-10-05T08:41:04.220Z,4.50
2018-10-05T08:42:19.454Z,5.53
2018-10-05T08:43:29.026Z,4.70
2018-10-05T08:44:38.699Z,6.33
2018-10-05T08:45:48.202Z,5.25
2018-10-05T08:46:58.197Z,5.97
2018-10-05T08:48:07.868Z,5.45
2018-10-05T08:49:17.658Z,6.60
2018-10-05T08:50:27.416Z,4.90
2018-10-05T08:51:37.135Z,5.03
2018-10-05T08:52:46.853Z,4.62
2018-10-05T08:53:56.520Z,5.87
2018-10-05T08:55:06.199Z,4.22
2018-10-05T08:56:15.752Z,5.83
2018-10-05T08:57:25.318Z,4.92
2018-10-05T08:58:34.913Z,3.80
2018-10-05T08:59:44.622Z,3.45
2018-10-05T09:00:54.654Z,3.90
2018-10-05T09:02:04.353Z,3.52
2018-10-05T09:03:14.015Z,4.22
2018-10-05T09:04:23.703Z,3.60
2018-10-05T09:05:33.582Z,3.10
2018-10-05T09:06:43.178Z,4.60
2018-10-05T09:07:52.908Z,4.28
2018-10-05T09:09:02.525Z,3.30
2018-10-05T09:10:12.211Z,4.50
2018-10-05T09:11:21.858Z,3.90
2018-10-05T09:12:31.471Z,5.12
2018-10-05T09:13:40.989Z,5.30
2018-10-05T09:14:50.642Z,5.25
2018-10-05T09:16:00.088Z,4.33
2018-10-05T09:17:09.775Z,3.65
2018-10-05T09:18:19.476Z,4.70
2018-10-05T09:19:29.137Z,4.25
2018-10-05T09:20:38.853Z,4.00
2018-10-05T09:21:48.345Z,6.70
2018-10-05T09:22:58.134Z,5.03
2018-10-05T09:24:07.930Z,5.12
2018-10-05T09:25:17.545Z,4.72
2018-10-05T09:26:27.094Z,5.92
2018-10-05T09:27:36.668Z,6.08
2018-10-05T09:28:46.399Z,5.22
2018-10-05T09:29:55.937Z,4.90
2018-10-05T09:31:05.674Z,5.10
2018-10-05T09:32:15.242Z,5.00
2018-10-05T09:33:24.781Z,6.28
2018-10-05T09:34:34.319Z,5.25
2018-10-05T09:35:43.815Z,4.83
2018-10-05T09:36:53.398Z,5.50
2018-10-05T09:38:03.002Z,4.70
2018-10-05T09:39:12.407Z,5.87
2018-10-05T09:40:22.073Z,6.87
2018-10-05T09:41:31.812Z,6.72
2018-10-05T09:42:46.831Z,7.85
2018-10-05T09:43:56.407Z,6.25
2018-10-05T09:45:06.134Z,7.00
2018-10-05T09:46:15.586Z,7.10
2018-10-05T09:47:25.062Z,5.65
2018-10-05T09:48:34.611Z,7.95
2018-10-05T09:49:44.243Z,6.78
2018-10-05T09:50:53.872Z,7.22
2018-10-05T09:52:17.870Z,6.75
2018-10-05T09:53:27.505Z,6.40
2018-10-05T09:54:37.235Z,7.33
2018-10-05T09:55:47.093Z,5.97
2018-10-05T09:56:56.600Z,6.97
2018-10-05T09:58:06.266Z,9.20
2018-10-05T09:59:16.033Z,8.35
2018-10-05T10:00:30.848Z,6.37
2018-10-05T10:01:45.611Z,6.25
2018-10-05T10:03:01.301Z,6.37
2018-10-05T10:04:11.073Z,7.12
2018-10-05T10:05:21.695Z,8.35
2018-10-05T10:06:31.410Z,7.40
2018-10-05T10:07:47.748Z,5.33
2018-10-05T10:08:57.442Z,5.45
2018-10-05T10:10:06.980Z,6.60
2018-10-05T10:11:16.777Z,7.55
2018-10-05T10:12:26.407Z,5.97
2018-10-05T10:13:35.941Z,6.92
2018-10-05T10:14:45.564Z,6.50
2018-10-05T10:15:55.070Z,6.95
2018-10-05T10:17:04.748Z,5.45
2018-10-05T10:18:14.463Z,6.65
2018-10-05T10:19:24.247Z,6.55
2018-10-05T10:20:33.854Z,5.47
2018-10-05T10:21:43.634Z,5.72
2018-10-05T10:22:53.163Z,6.47
2018-10-05T10:24:02.823Z,5.97
2018-10-05T10:25:12.434Z,5.35
2018-10-05T10:26:21.941Z,6.85
2018-10-05T10:27:31.620Z,6.45
2018-10-05T10:28:41.284Z,6.80
2018-10-05T10:29:54.154Z,6.40
2018-10-05T10:31:03.784Z,6.50
2018-10-05T10:32:13.455Z,6.28
2018-10-05T10:33:23.203Z,8.70
2018-10-05T10:34:32.824Z,8.40
2018-10-05T10:35:48.043Z,8.88
2018-10-05T10:36:57.591Z,7.92
2018-10-05T10:38:07.302Z,7.05
2018-10-05T10:39:16.961Z,6.42
2018-10-05T10:40:29.994Z,7.33
2018-10-05T10:41:39.502Z,5.60
2018-10-05T10:42:49.169Z,5.65
2018-10-05T10:43:58.913Z,5.45
2018-10-05T10:45:09.004Z,6.00
2018-10-05T10:46:24.058Z,6.20
2018-10-05T10:47:33.813Z,7.22
2018-10-05T10:48:43.492Z,8.35
2018-10-05T10:49:53.113Z,5.50
2018-10-05T10:51:02.678Z,5.75
2018-10-05T10:52:12.314Z,5.30
2018-10-05T10:53:21.966Z,6.00
2018-10-05T10:54:31.605Z,6.33
2018-10-05T10:55:41.072Z,4.65
2018-10-05T10:56:50.674Z,6.67
2018-10-05T10:58:00.103Z,6.83
2018-10-05T10:59:09.615Z,5.53
2018-10-05T11:00:19.183Z,4.90
2018-10-05T11:01:28.743Z,5.65
2018-10-05T11:02:38.214Z,5.60
2018-10-05T11:03:47.937Z,4.78
2018-10-05T11:04:57.358Z,4.05
2018-10-05T11:06:07.020Z,4.17
2018-10-05T11:07:16.563Z,4.75
2018-10-05T11:08:26.099Z,5.10
2018-10-05T11:09:35.557Z,4.17
2018-10-05T11:10:45.137Z,4.40
2018-10-05T11:11:54.706Z,4.90
2018-10-05T11:13:04.300Z,4.47
2018-10-05T11:14:14.008Z,5.15
2018-10-05T11:15:23.602Z,4.25
2018-10-05T11:16:33.177Z,4.58
2018-10-05T11:17:42.850Z,5.28
2018-10-05T11:18:52.509Z,4.67
2018-10-05T11:20:01.986Z,5.70
2018-10-05T11:21:11.346Z,4.42
2018-10-05T11:22:20.869Z,4.55
2018-10-05T11:23:30.548Z,4.15
2018-10-05T11:24:40.198Z,4.30
2018-10-05T11:25:49.856Z,3.90
2018-10-05T11:26:59.529Z,8.33
2018-10-05T11:28:08.984Z,3.95
2018-10-05T11:29:18.447Z,5.20
2018-10-05T11:30:28.364Z,4.12
2018-10-05T11:31:38.133Z,4.33
2018-10-05T11:32:47.750Z,5.03
2018-10-05T11:33:57.251Z,4.35
2018-10-05T11:35:07.180Z,3.80
2018-10-05T11:36:16.724Z,4.55
2018-10-05T11:37:26.184Z,4.28
2018-10-05T11:38:35.958Z,4.55
2018-10-05T11:39:45.459Z,3.85
2018-10-05T11:40:55.071Z,4.83
2018-10-05T11:42:04.506Z,3.77
2018-10-05T11:43:14.124Z,3.85
2018-10-05T11:44:23.607Z,4.20
2018-10-05T11:45:37.329Z,3.75
2018-10-05T11:46:46.800Z,4.87
2018-10-05T11:47:56.358Z,3.65
2018-10-05T11:49:06.299Z,4.28
2018-10-05T11:50:15.761Z,4.17
2018-10-05T11:51:25.173Z,3.85
2018-10-05T11:52:34.955Z,3.27
2018-10-05T11:53:44.486Z,3.75
2018-10-05T11:54:53.919Z,4.00
2018-10-05T11:56:07.455Z,2.87
2018-10-05T11:57:16.958Z,3.10
2018-10-05T11:58:26.689Z,3.47
2018-10-05T11:59:36.341Z,3.50
2018-10-05T12:00:45.982Z,3.65
2018-10-05T12:01:55.512Z,3.10
2018-10-05T12:03:04.931Z,6.78
2018-10-05T12:04:14.507Z,3.27
2018-10-05T12:05:24.102Z,3.17
2018-10-05T12:06:33.673Z,3.42
2018-10-05T12:07:43.456Z,4.10
2018-10-05T12:08:53.241Z,3.80
2018-10-05T12:10:02.930Z,3.85
2018-10-05T12:11:12.452Z,3.67
2018-10-05T12:12:22.192Z,3.30
2018-10-05T12:13:31.656Z,3.15
2018-10-05T12:14:41.259Z,4.50
2018-10-05T12:15:50.833Z,3.42
2018-10-05T12:17:00.506Z,3.67
2018-10-05T12:18:09.963Z,3.85
2018-10-05T12:19:19.765Z,3.10
2018-10-05T12:20:29.516Z,3.67
2018-10-05T12:21:39.039Z,4.40
2018-10-05T12:22:48.605Z,3.22
2018-10-05T12:23:58.454Z,4.53
2018-10-05T12:25:08.318Z,10.13
2018-10-05T12:26:17.831Z,4.50
2018-10-05T12:27:28.211Z,5.20
2018-10-05T12:28:37.762Z,4.85
2018-10-05T12:29:47.369Z,3.15
2018-10-05T12:30:56.939Z,4.30
2018-10-05T12:32:06.675Z,2.60
2018-10-05T12:33:16.212Z,6.03
2018-10-05T12:34:25.702Z,2.95
2018-10-05T12:35:35.324Z,3.08
2018-10-05T12:36:44.911Z,3.20
2018-10-05T12:37:54.536Z,3.25
2018-10-05T12:39:05.408Z,2.40
2018-10-05T12:40:15.020Z,3.47
2018-10-05T12:41:24.708Z,3.22
2018-10-05T12:42:34.350Z,2.80
2018-10-05T12:43:44.001Z,3.50
2018-10-05T12:44:53.691Z,3.08
2018-10-05T12:46:03.373Z,3.35
2018-10-05T12:47:13.002Z,2.75
2018-10-05T12:48:32.510Z,2.02
2018-10-05T12:49:42.223Z,2.72
2018-10-05T12:50:52.389Z,2.52
2018-10-05T12:52:02.240Z,9.65
2018-10-05T12:53:11.768Z,2.65
2018-10-05T12:54:21.525Z,4.62
2018-10-05T12:55:31.323Z,5.30
2018-10-05T12:56:40.868Z,2.15
2018-10-05T12:57:50.346Z,2.33
2018-10-05T12:59:00.004Z,2.37
2018-10-05T13:00:09.547Z,4.40
2018-10-05T13:01:19.239Z,4.47
2018-10-05T13:02:28.987Z,2.15
2018-10-05T13:03:38.456Z,2.83
2018-10-05T13:04:47.966Z,3.05
2018-10-05T13:05:57.677Z,5.03
2018-10-05T13:07:07.197Z,5.03
2018-10-05T13:08:16.660Z,2.50
2018-10-05T13:09:26.146Z,4.67
2018-10-05T13:10:35.758Z,4.90
2018-10-05T13:11:45.371Z,4.28
2018-10-05T13:12:55.126Z,3.05
2018-10-05T13:14:04.845Z,2.37
2018-10-05T13:15:14.476Z,3.83
2018-10-05T13:16:24.127Z,2.35
2018-10-05T13:17:33.679Z,2.58
2018-10-05T13:18:42.997Z,2.10
2018-10-05T13:19:52.641Z,2.02
2018-10-05T13:21:02.334Z,4.62
2018-10-05T13:22:11.870Z,2.33
2018-10-05T13:23:21.571Z,2.10
2018-10-05T13:24:31.161Z,2.10
2018-10-05T13:25:40.532Z,2.55
2018-10-05T13:26:50.106Z,3.08
2018-10-05T13:27:59.795Z,2.30
2018-10-05T13:29:09.259Z,2.67
2018-10-05T13:30:18.691Z,2.35
2018-10-05T13:31:33.619Z,2.20
2018-10-05T13:32:43.159Z,2.20
2018-10-05T13:33:52.845Z,2.25
2018-10-05T13:35:02.413Z,1.82
2018-10-05T13:36:11.921Z,2.52
2018-10-05T13:37:25.524Z,1.40
2018-10-05T13:38:35.221Z,2.02
2018-10-05T13:39:44.619Z,2.77
2018-10-05T13:40:54.298Z,1.98
2018-10-05T13:42:04.388Z,2.17
2018-10-05T13:43:13.838Z,2.70
2018-10-05T13:44:23.286Z,2.00
2018-10-05T13:45:33.097Z,2.02
2018-10-05T13:46:42.517Z,2.12
2018-10-05T13:47:52.321Z,2.17
2018-10-05T13:49:02.530Z,2.35
2018-10-05T13:50:13.059Z,2.25
2018-10-05T13:51:22.620Z,2.30
2018-10-05T13:52:32.199Z,2.27
2018-10-05T13:53:41.738Z,2.02
2018-10-05T13:54:51.562Z,2.75
2018-10-05T13:56:01.131Z,1.95
2018-10-05T13:57:10.865Z,2.05
2018-10-05T13:58:20.394Z,2.30
2018-10-05T13:59:30.274Z,2.30
2018-10-05T14:00:39.900Z,2.40
2018-10-05T14:01:49.443Z,2.05
2018-10-05T14:02:59.155Z,2.20
2018-10-05T14:04:08.757Z,2.00
2018-10-05T14:05:18.328Z,2.45
2018-10-05T14:06:27.933Z,2.92
2018-10-05T14:07:37.486Z,2.35
2018-10-05T14:08:47.012Z,1.98
2018-10-05T14:09:56.641Z,2.42
2018-10-05T14:11:06.336Z,2.08
2018-10-05T14:12:15.951Z,2.05
2018-10-05T14:13:25.629Z,2.50
2018-10-05T14:14:35.309Z,2.08
2018-10-05T14:15:44.950Z,1.72
2018-10-05T14:16:54.450Z,2.05
2018-10-05T14:18:04.547Z,5.78
2018-10-05T14:19:14.329Z,1.95
2018-10-05T14:20:23.965Z,2.35
2018-10-05T14:21:33.687Z,2.35
2018-10-05T14:22:43.250Z,2.22
2018-10-05T14:23:52.904Z,2.70
2018-10-05T14:25:02.822Z,2.20
2018-10-05T14:26:12.323Z,2.00
2018-10-05T14:27:21.810Z,2.62
2018-10-05T14:28:31.530Z,2.40
2018-10-05T14:29:41.005Z,2.10
2018-10-05T14:30:50.841Z,2.30
2018-10-05T14:32:00.284Z,2.12
2018-10-05T14:33:10.091Z,3.15
2018-10-05T14:34:19.827Z,2.33
2018-10-05T14:35:29.515Z,1.98
2018-10-05T14:36:45.356Z,1.80
2018-10-05T14:37:54.944Z,2.20
2018-10-05T14:39:06.231Z,2.60
2018-10-05T14:40:15.927Z,3.00
2018-10-05T14:41:25.738Z,2.95
2018-10-05T14:42:38.909Z,2.75
2018-10-05T14:43:48.421Z,4.92
2018-10-05T14:44:58.012Z,1.80
2018-10-05T14:46:08.202Z,1.90
2018-10-05T14:47:17.664Z,3.27
2018-10-05T14:48:27.427Z,2.20
2018-10-05T14:49:37.144Z,2.00
2018-10-05T14:50:46.790Z,1.80
2018-10-05T14:51:56.388Z,2.27
2018-10-05T14:53:05.975Z,2.05
2018-10-05T14:54:15.618Z,1.45
2018-10-05T14:55:25.127Z,1.95
2018-10-05T14:56:34.698Z,1.90
2018-10-05T14:57:48.017Z,2.05
2018-10-05T14:58:57.582Z,3.30
2018-10-05T15:00:07.350Z,2.75
2018-10-05T15:01:16.981Z,2.92
2018-10-05T15:02:26.694Z,2.20
2018-10-05T15:03:36.304Z,1.90
2018-10-05T15:04:46.374Z,1.90
2018-10-05T15:05:56.130Z,2.50
2018-10-05T15:07:05.682Z,3.65
2018-10-05T15:08:15.293Z,1.80
2018-10-05T15:09:24.981Z,4.50
2018-10-05T15:10:34.638Z,2.15
2018-10-05T15:11:44.343Z,1.95
2018-10-05T15:12:54.266Z,2.08
2018-10-05T15:14:03.933Z,3.35
2018-10-05T15:15:13.693Z,2.45
2018-10-05T15:16:34.533Z,2.67
2018-10-05T15:17:44.273Z,3.33
2018-10-05T15:18:53.937Z,2.30
2018-10-05T15:20:03.508Z,2.37
2018-10-05T15:21:13.292Z,1.80
2018-10-05T15:22:22.783Z,2.10
2018-10-05T15:23:32.602Z,2.20
2018-10-05T15:24:42.251Z,1.60
2018-10-05T15:25:51.877Z,2.85
2018-10-05T15:27:01.421Z,3.02